Weather observations for the past three days for
Davis-Monthan Air Force Base
Imperial (Metric)
Date Time (mst) Wind (mph) Vis. (mi.) Weather Sky Cond. Temperature (ºF) Relative Humidity Wind Chill (°F) Heat Index (°F) Pressure Precipitation (in)
Air Dwpt 6 hour altimeter (in) sea level (mb) 1 hr 3 hr 6 hr
Max. Min.
08 05:55 SE 7 10.00 Fair CLR 60.1 33.1 36% 29.98 1015.8
08 04:55 SE 9 10.00 Fair CLR 61 33.1 71.4 59.2 35% 29.97 1015.4
08 03:55 SE 7 10.00 Fair CLR 63 34.2 34% 29.96 1014.9
08 02:55 E 9 10.00 Fair CLR 63.5 33.8 33% 29.95 1014.6
08 01:55 E 10 10.00 Fair CLR 65.1 32.9 30% 29.95 1014.6
08 00:55 E 6 10.00 Fair CLR 65.5 33.3 30% 29.97 1015.3
07 23:55 E 5 10.00 Fair CLR 70.9 31.3 23% 29.97 1014.9
07 22:55 SE 5 10.00 Fair CLR 69.8 33.8 88.7 69.4 27% 29.98 1015.6
07 21:55 E 6 10.00 Fair CLR 73.4 33.8 23% 29.98 1015.6
07 20:55 Calm 10.00 Fair CLR 75.2 33.8 22% 76 29.95 1014.6
07 19:55 S 12 10.00 Fair CLR 78.8 32 18% 78 29.91 1013.2
07 18:55 S 16 G 28 10.00 Overcast OVC140 82.4 32 16% 80 29.88 1012.3
07 17:55 NW 8 G 16 10.00 Overcast OVC150 87.8 28.4 12% 84 29.86 1007.5
07 16:55 W 9 G 17 10.00 A Few Clouds FEW140 87.8 26.6 88.9 80.4 11% 84 29.85 1007.2
07 15:55 NE 8 10.00 Partly Cloudy SCT150 87.8 26.6 11% 84 29.85 1011.4
07 14:55 Calm 10.00 Partly Cloudy SCT130 SCT150 86 23 10% 83 29.87 1007.9
07 13:55 NE 3 10.00 Mostly Cloudy BKN150 86 26.6 11% 83 29.89 1008.4
07 12:55 N 3 G 17 10.00 A Few Clouds FEW140 86 26.6 11% 83 29.91 1009.1
07 11:55 W 9 10.00 A Few Clouds FEW210 84.2 28.4 13% 81 29.93 1009.4
07 10:55 Calm 10.00 Fair CLR 80.6 28.4 81.3 55.4 15% 79 29.96 1010.8
07 09:55 Calm 10.00 Fair CLR 77 30.2 18% 77 29.98 1011.5
07 08:55 E 6 10.00 Fair CLR 75.2 30.2 19% 76 29.99 1011.8
07 07:55 E 6 10.00 Fair CLR 70.3 27.3 20% 30 1012.3
07 06:55 E 7 10.00 Fair CLR 63 28.4 27% 30.01 1012.8
07 05:55 E 7 10.00 Fair CLR 57.2 32 39% 30 1012.5
07 04:55 E 7 10.00 Fair CLR 59 32 68.7 55.4 36% 29.99 1012.3
07 03:55 E 8 10.00 Fair CLR 59 32 36% 30 1012.3
07 02:55 E 3 10.00 Fair CLR 58.3 34 40% 29.99 1012.3
07 01:55 E 6 10.00 Fair CLR 60.3 34.5 38% 30 1012.7
07 00:55 SE 5 10.00 Fair CLR 60.3 34.5 38% 30 1012.7
06 23:55 Calm 10.00 Fair CLR 68.5 28.2 22% 30 1012.5
06 22:55 W 8 10.00 Fair CLR 68 30.2 79.3 67.6 24% 30 1012.7
06 21:55 W 8 10.00 Fair CLR 69.8 28.4 21% 29.99 1012.3
06 20:55 W 8 10.00 Fair CLR 73.4 28.4 19% 29.98 1011.8
06 19:55 W 9 10.00 Fair CLR 73.4 28.4 19% 29.96 1011.5
06 18:55 NW 9 10.00 Fair CLR 77 30.2 18% 77 29.95 1011.1
06 17:55 NW 10 10.00 Fair CLR 78.8 30.2 17% 78 29.95 1011.1
06 16:55 NW 9 10.00 Fair CLR 78.8 30.2 80.1 68.5 17% 78 29.94 1010.8
06 15:55 W 5 10.00 Fair CLR 78.8 30.2 17% 78 29.95 1011.1
06 14:55 Calm 10.00 Fair CLR 77 33.8 21% 77 29.97 1011.8
06 13:55 W 5 10.00 Fair CLR 77 35.6 22% 77 29.99 1012.3
06 12:55 Calm 10.00 Fair CLR 73.6 24.6 16% 30.01 1017.5
06 11:55 W 7 10.00 Fair CLR 72 27.5 19% 30.03 1018.2
06 10:55 N 5 10.00 Fair CLR 68.2 34.7 69.8 51.6 29% 30.04 1018.5
06 09:55 Calm 10.00 Fair CLR 66.9 38.3 35% 30.04 1018.5
06 08:55 Calm 10.00 Fair CLR 64.6 40.3 41% 30.03 1018.2
06 07:55 SE 3 10.00 Fair CLR 60.6 39.7 46% 30.03 1018.4
06 06:55 SE 7 10.00 Fair CLR 55.9 41.9 59% 30.03 1018.6
06 05:55 Calm 10.00 Fair CLR 52 42.8 71% 30.02 1018.2
06 04:55 S 6 10.00 Fair CLR 52.3 42.4 63.7 52 69% 30 1017.5
06 03:55 SE 6 10.00 Fair CLR 53.6 43.3 68% 29.99 1017.0
06 02:55 S 3 10.00 Fair CLR 55 44.2 67% 29.98 1012.2
06 01:55 S 5 10.00 A Few Clouds FEW065 60.6 42.4 51% 29.98 1012.0
06 00:55 S 5 10.00 Mostly Cloudy BKN065 60.4 45.1 57% 29.99 1012.3
05 23:55 Calm 10.00 Fair CLR 62.1 44.2 52% 29.98 1012.2
05 22:55 SW 5 10.00 Fair CLR 63.5 43 75.2 63.5 47% 29.98 1012.2
05 21:55 W 8 10.00 Fair CLR 64.6 43.3 46% 29.96 1011.7
05 20:55 SW 9 10.00 Fair CLR 66.6 40.8 39% 29.93 1010.6
05 19:55 W 9 10.00 A Few Clouds FEW075 68.2 36.3 31% 29.9 1009.6
05 18:55 W 12 10.00 Fair CLR 70.2 37.2 30% 29.87 1008.4
05 17:55 SW 12 G 24 10.00 Fair CLR 73.4 33.3 23% 29.86 1008.0
05 16:55 SW 14 G 22 10.00 Fair CLR 73.8 34.7 76.8 67.3 24% 29.85 1007.7
05 14:55 SW 20 G 26 10.00 Fair CLR 76.5 36 23% 77 29.86 1007.8
05 13:55 SW 16 G 25 10.00 Partly Cloudy SCT065 75.9 43.2 31% 77 29.87 1008.2
05 12:55 S 12 G 21 10.00 Partly Cloudy FEW050 SCT070 74.3 44.8 35% 29.89 1008.9
05 11:55 NW 6 10.00 Partly Cloudy FEW040 SCT049 69.4 50 50% 29.91 1009.7
05 10:55 W 5 10.00 Overcast BKN037 BKN047 OVC055 67.1 51.8 67.1 59.5 58% 29.93 1010.6 0.01
05 09:55 Calm 10.00 Overcast OVC050 66.2 52 60% 29.93 1010.6
05 08:55 SW 5 10.00 Overcast OVC050 63 53.1 70% 29.93 1011.0
05 07:55 Calm 10.00 Overcast OVC048 62.2 52.7 71% 29.93 1015.3 0.01
05 06:55 N 6 10.00 Mostly Cloudy BKN055 BKN070 61.5 54.5 78% 29.91 1014.4
Date Time (mst) Wind (mph) Vis. (mi.) Weather Sky Cond. Air Dwpt Max. Min. Relative Humidity Wind Chill (°F) Heat Index (°F) altimeter (in) sea level (mb) 1 hr 3 hr 6 hr
6 hour
Temperature (ºF) Pressure Precipitation (in)